Time;durP1;ratioP1;P1;durP2;ratioP2;P2;SDS_P1;SDS_P2;PMS_P1;PMS_P2;Temp;Humidity;BMP_temperature;BMP_pressure;BME280_temperature;BME280_humidity;BME280_pressure;Samples;Min_cycle;Max_cycle;Signal;HPM_P1;HPM_P2
2021/07/20 00:00:24;;;;;;;31.40;15.20;;;15.40;99.90;;;16.52;100.00;98477.78;5051214;28;20594;-81
2021/07/20 00:02:55;;;;;;;26.20;15.73;;;15.40;99.90;;;16.51;100.00;98484.13;5048142;28;20444;-81
2021/07/20 00:05:29;;;;;;;26.50;16.60;;;15.40;99.90;;;16.48;100.00;98484.56;5049188;28;20528;-81
2021/07/20 00:08:01;;;;;;;26.23;15.40;;;15.30;99.90;;;16.42;100.00;98485.38;5050494;28;20480;-81
2021/07/20 00:10:36;;;;;;;29.70;16.50;;;15.30;99.90;;;16.38;100.00;98484.19;5049808;28;20445;-81
2021/07/20 00:13:07;;;;;;;30.00;15.40;;;15.30;99.90;;;16.47;100.00;98482.91;5050112;28;20516;-81
2021/07/20 00:15:37;;;;;;;23.47;15.30;;;15.30;99.90;;;16.41;100.00;98478.50;5044894;28;20449;-81
2021/07/20 00:18:12;;;;;;;23.80;14.50;;;15.30;99.90;;;16.37;100.00;98479.94;5044517;28;20552;-81
2021/07/20 00:20:44;;;;;;;25.87;15.90;;;15.20;99.90;;;16.43;100.00;98473.00;5044223;28;20515;-81
2021/07/20 00:23:13;;;;;;;24.60;16.17;;;15.30;99.90;;;16.48;100.00;98476.63;5045143;28;20829;-81
2021/07/20 00:25:42;;;;;;;22.30;15.03;;;15.40;99.90;;;16.41;100.00;98472.41;5046902;28;20469;-81
2021/07/20 00:28:10;;;;;;;27.57;14.90;;;15.30;99.90;;;16.33;100.00;98476.09;5045528;28;20491;-81
2021/07/20 00:30:39;;;;;;;31.53;15.47;;;15.20;99.90;;;15.90;100.00;98475.13;5046004;28;20538;-81
2021/07/20 00:33:07;;;;;;;30.27;16.20;;;14.80;99.90;;;16.06;100.00;98469.38;5044303;28;20539;-81
2021/07/20 00:35:36;;;;;;;39.10;14.33;;;14.90;99.90;;;15.98;100.00;98467.78;5051428;28;21020;-81
2021/07/20 00:38:06;;;;;;;28.63;15.70;;;14.80;99.90;;;15.89;100.00;98471.69;5041313;28;20473;-81
2021/07/20 00:40:34;;;;;;;27.90;14.10;;;14.80;99.90;;;15.89;100.00;98473.53;5046121;28;20812;-81
2021/07/20 00:43:05;;;;;;;30.20;16.87;;;14.80;99.90;;;15.97;100.00;98467.97;5047988;28;20468;-81
2021/07/20 00:45:34;;;;;;;32.83;16.00;;;14.90;99.90;;;16.10;100.00;98466.09;5043578;28;20457;-81
2021/07/20 00:48:03;;;;;;;25.90;15.97;;;15.00;99.90;;;15.89;100.00;98462.97;5045032;28;20511;-81
2021/07/20 00:50:35;;;;;;;28.83;16.10;;;14.80;99.90;;;15.86;100.00;98466.03;5047861;28;20469;-81
2021/07/20 00:53:06;;;;;;;30.63;15.27;;;14.80;99.90;;;15.88;100.00;98467.44;5045749;28;20547;-81
2021/07/20 00:55:37;;;;;;;25.37;15.13;;;14.80;99.90;;;15.59;100.00;98473.22;5048886;28;20836;-81
2021/07/20 00:58:05;;;;;;;26.67;14.30;;;14.50;99.90;;;15.52;100.00;98467.97;5045969;28;20519;-81
2021/07/20 01:00:35;;;;;;;25.50;14.70;;;14.40;99.90;;;15.64;100.00;98475.25;5044663;28;20543;-82
2021/07/20 01:03:05;;;;;;;30.53;14.27;;;14.50;99.90;;;15.73;100.00;98473.97;5041005;28;21010;-81
2021/07/20 01:05:35;;;;;;;22.90;13.97;;;14.60;99.90;;;15.55;100.00;98472.81;5047154;28;20464;-81
2021/07/20 01:08:07;;;;;;;21.63;14.73;;;14.40;99.90;;;15.58;100.00;98464.50;5045371;28;20462;-81
2021/07/20 01:10:37;;;;;;;31.07;14.37;;;14.40;99.90;;;15.48;100.00;98474.66;5044826;28;20554;-81
2021/07/20 01:13:07;;;;;;;29.97;16.47;;;14.30;99.90;;;15.18;100.00;98476.13;5047105;28;21268;-81
2021/07/20 01:15:37;;;;;;;29.33;15.37;;;14.00;99.90;;;15.32;100.00;98476.91;5049301;28;20970;-81
2021/07/20 01:18:07;;;;;;;28.73;15.30;;;14.20;99.90;;;15.22;100.00;98482.63;5043639;28;21129;-81
2021/07/20 01:20:36;;;;;;;25.60;15.83;;;14.10;99.90;;;15.30;100.00;98479.78;5043795;28;20578;-81
2021/07/20 01:23:16;;;;;;;24.70;15.03;;;14.20;99.90;;;15.17;100.00;98482.41;5046292;28;20553;-81
2021/07/20 01:25:48;;;;;;;38.43;15.20;;;14.00;99.90;;;15.08;100.00;98486.28;5046305;28;20976;-81
2021/07/20 01:28:22;;;;;;;27.40;15.17;;;13.90;99.90;;;15.10;100.00;98481.63;5046057;28;20520;-81
2021/07/20 01:30:57;;;;;;;29.37;15.37;;;14.00;99.90;;;14.97;100.00;98479.00;5043260;28;20488;-81
2021/07/20 01:33:28;;;;;;;24.40;14.67;;;13.80;99.90;;;15.08;100.00;98486.28;5042822;28;20489;-81
2021/07/20 01:36:01;;;;;;;27.83;15.00;;;13.90;99.90;;;15.22;100.00;98480.00;5046421;28;20491;-81
2021/07/20 01:38:31;;;;;;;25.57;15.03;;;14.10;99.90;;;15.19;100.00;98477.78;5047085;28;20473;-81
2021/07/20 01:41:07;;;;;;;23.67;15.10;;;14.00;99.90;;;15.29;100.00;98478.16;5046015;28;20492;-81
2021/07/20 01:43:42;;;;;;;24.90;14.37;;;14.10;99.90;;;15.15;100.00;98473.09;5044373;28;20506;-81
2021/07/20 01:46:12;;;;;;;27.63;14.83;;;14.00;99.90;;;15.29;100.00;98478.16;5042193;28;20872;-81
2021/07/20 01:48:46;;;;;;;29.47;14.70;;;14.20;99.90;;;15.30;100.00;98474.50;5045942;28;20467;-81
2021/07/20 01:51:15;;;;;;;21.33;14.00;;;14.20;99.90;;;15.11;100.00;98472.69;5041387;28;20457;-81
2021/07/20 01:53:44;;;;;;;30.33;14.80;;;13.90;99.90;;;14.98;100.00;98475.38;5038772;28;20982;-81
2021/07/20 01:56:15;;;;;;;22.43;14.40;;;13.80;99.90;;;15.08;100.00;98481.03;5044309;28;20981;-81
2021/07/20 01:58:44;;;;;;;25.37;15.60;;;14.00;99.90;;;15.13;100.00;98485.69;5038767;28;20546;-81
2021/07/20 02:01:19;;;;;;;23.57;14.20;;;14.00;99.90;;;15.19;100.00;98477.78;5045129;28;20563;-81
2021/07/20 02:09:39;;;;;;;24.47;15.97;;;13.80;99.90;;;14.88;100.00;98469.69;5046538;28;20562;-81
2021/07/20 02:12:15;;;;;;;23.23;14.27;;;13.70;99.90;;;14.65;100.00;98479.84;5039513;28;22051;-81
2021/07/20 02:14:47;;;;;;;23.40;14.47;;;13.50;99.90;;;14.48;100.00;98477.59;5045895;28;20526;-81
2021/07/20 02:17:15;;;;;;;26.70;14.60;;;13.30;99.90;;;14.47;100.00;98472.53;5046534;28;20457;-81
2021/07/20 02:19:50;;;;;;;23.67;14.37;;;13.30;99.90;;;14.53;100.00;98477.81;5045172;28;20481;-81
2021/07/20 02:22:23;;;;;;;23.13;15.10;;;13.40;99.90;;;14.59;100.00;98471.72;5041857;28;20492;-81
2021/07/20 02:24:56;;;;;;;23.80;14.00;;;13.40;99.90;;;14.48;100.00;98474.13;5044678;28;20514;-81
2021/07/20 02:27:27;;;;;;;23.77;14.43;;;13.30;99.90;;;14.39;100.00;98468.28;5044259;28;20457;-81
2021/07/20 02:30:01;;;;;;;25.60;14.60;;;13.30;99.90;;;14.48;100.00;98471.50;5043027;28;21095;-81
2021/07/20 02:32:32;;;;;;;24.90;15.03;;;13.30;99.90;;;14.53;100.00;98472.53;5045707;28;20484;-81
2021/07/20 02:35:02;;;;;;;25.43;14.93;;;13.40;99.90;;;14.51;100.00;98468.47;5038862;28;20462;-81
2021/07/20 02:37:33;;;;;;;26.90;14.90;;;13.30;99.90;;;14.46;100.00;98470.91;5045076;28;20462;-81
2021/07/20 02:40:05;;;;;;;23.20;14.60;;;13.30;99.90;;;14.56;100.00;98473.94;5042295;28;20581;-81
2021/07/20 02:42:36;;;;;;;21.47;12.70;;;13.40;99.90;;;14.67;100.00;98472.53;5046704;28;20464;-81
2021/07/20 02:45:07;;;;;;;25.60;15.07;;;13.50;99.90;;;14.65;100.00;98470.09;5047470;28;20507;-80
2021/07/20 02:47:37;;;;;;;24.10;14.60;;;13.50;99.90;;;14.64;100.00;98472.94;5044486;28;20570;-81
2021/07/20 02:50:08;;;;;;;25.37;15.53;;;13.50;99.90;;;14.56;100.00;98464.25;5048164;28;20993;-81
2021/07/20 02:52:39;;;;;;;25.10;14.00;;;13.50;99.90;;;14.46;100.00;98463.81;5041356;28;20489;-80
2021/07/20 02:55:11;;;;;;;27.83;14.03;;;13.40;99.90;;;14.70;100.00;98466.88;5041925;28;20457;-81
2021/07/20 02:57:43;;;;;;;24.80;13.77;;;13.60;99.90;;;14.84;100.00;98457.94;5043612;28;20453;-80
2021/07/20 03:00:13;;;;;;;26.17;14.40;;;13.80;99.90;;;14.89;100.00;98466.06;5042360;28;20923;-80
2021/07/20 03:02:47;;;;;;;24.37;14.20;;;13.90;99.90;;;14.93;100.00;98460.16;5040244;28;20874;-81
2021/07/20 03:05:18;;;;;;;21.93;13.73;;;13.90;99.90;;;14.97;100.00;98457.94;5042334;28;20588;-80
2021/07/20 03:07:52;;;;;;;26.97;14.37;;;13.90;99.90;;;14.89;100.00;98464.22;5048188;28;20460;-81
2021/07/20 03:10:27;;;;;;;21.00;14.27;;;13.80;99.90;;;14.93;100.00;98456.72;5050776;28;20972;-80
2021/07/20 03:13:07;;;;;;;24.07;14.13;;;13.90;99.90;;;14.96;100.00;98456.34;5046994;28;20469;-80
2021/07/20 03:15:39;;;;;;;22.00;12.73;;;13.90;99.90;;;15.01;100.00;98453.88;5045566;28;20881;-80
2021/07/20 03:18:10;;;;;;;22.27;13.53;;;14.00;99.90;;;14.92;100.00;98455.13;5047834;28;20963;-80
2021/07/20 03:20:42;;;;;;;23.33;14.40;;;13.90;99.90;;;14.88;100.00;98451.28;5047808;28;20564;-80
2021/07/20 03:23:13;;;;;;;22.63;13.63;;;13.80;99.90;;;14.86;100.00;98453.28;5050358;28;20866;-81
2021/07/20 03:25:43;;;;;;;26.60;15.03;;;13.80;99.90;;;14.85;100.00;98460.41;5044967;28;20971;-80
2021/07/20 03:28:14;;;;;;;23.30;15.00;;;13.80;99.90;;;14.87;100.00;98457.53;5042800;28;20457;-80
2021/07/20 03:30:43;;;;;;;22.67;14.63;;;13.80;99.90;;;14.95;100.00;98459.97;5048052;28;20460;-81
2021/07/20 03:33:13;;;;;;;19.53;12.73;;;13.90;99.90;;;14.93;100.00;98459.34;5045915;28;20481;-80
2021/07/20 03:35:42;;;;;;;24.47;14.60;;;13.90;99.90;;;14.97;100.00;98457.94;5047451;28;21029;-83
2021/07/20 03:38:11;;;;;;;28.53;13.97;;;13.90;99.90;;;14.84;100.00;98466.66;5050026;28;20468;-81
2021/07/20 03:40:40;;;;;;;24.60;15.10;;;13.80;99.90;;;14.87;100.00;98455.72;5046779;28;20496;-80
2021/07/20 03:43:09;;;;;;;21.10;13.00;;;13.80;99.90;;;14.84;100.00;98458.75;5047981;28;21044;-80
2021/07/20 03:45:40;;;;;;;25.90;13.20;;;13.80;99.90;;;14.81;100.00;98453.09;5042236;28;20518;-80
2021/07/20 03:48:09;;;;;;;24.43;14.73;;;13.70;99.90;;;14.78;100.00;98459.59;5047791;28;20460;-85
2021/07/20 03:50:38;;;;;;;25.00;14.57;;;13.70;99.90;;;14.77;100.00;98462.41;5048304;28;21128;-80
2021/07/20 03:53:08;;;;;;;26.43;14.60;;;13.70;99.90;;;14.77;100.00;98455.31;5048922;28;20530;-80
2021/07/20 03:55:37;;;;;;;25.87;13.80;;;13.70;99.90;;;14.74;100.00;98465.44;5042243;28;20465;-80
2021/07/20 03:58:07;;;;;;;23.70;13.40;;;13.60;99.90;;;14.75;100.00;98461.81;5049665;28;20939;-81
2021/07/20 04:00:36;;;;;;;32.77;19.47;;;13.60;99.90;;;14.81;100.00;98480.25;5049339;28;20566;-84
2021/07/20 04:03:24;;;;;;;22.27;14.20;;;13.70;99.90;;;14.82;100.00;98475.78;5047296;28;21099;-80
2021/07/20 04:05:58;;;;;;;26.43;16.00;;;13.70;99.90;;;14.69;100.00;98471.31;5046248;28;20474;-80
2021/07/20 04:08:29;;;;;;;22.57;14.10;;;13.60;99.90;;;14.72;100.00;98470.09;5045781;28;20476;-80
2021/07/20 04:10:59;;;;;;;21.27;13.47;;;13.60;99.90;;;14.73;100.00;98471.72;5049654;28;20456;-80
2021/07/20 04:13:28;;;;;;;22.40;13.30;;;13.70;99.90;;;14.74;100.00;98473.34;5049568;28;20529;-80
2021/07/20 04:16:02;;;;;;;21.80;11.53;;;13.70;99.90;;;14.71;100.00;98473.75;5044873;28;20813;-80
2021/07/20 04:18:34;;;;;;;29.23;15.07;;;13.60;99.90;;;14.67;100.00;98478.63;5047938;28;20519;-80
2021/07/20 04:21:08;;;;;;;21.43;13.13;;;13.60;99.90;;;14.70;100.00;98477.41;5045531;28;20499;-79
2021/07/20 04:23:38;;;;;;;22.70;12.90;;;13.60;99.90;;;14.63;100.00;98484.47;5052876;28;20453;-80
2021/07/20 04:26:09;;;;;;;31.00;13.83;;;13.60;99.90;;;14.63;100.00;98482.66;5047295;28;20507;-79
2021/07/20 04:28:38;;;;;;;23.83;14.10;;;13.60;99.90;;;14.67;100.00;98483.06;5049361;28;20445;-79
2021/07/20 04:31:09;;;;;;;37.93;16.63;;;13.60;99.90;;;14.64;100.00;98484.28;5051263;28;20450;-79
2021/07/20 04:33:40;;;;;;;27.77;14.30;;;13.60;99.90;;;14.29;100.00;98475.72;5049077;28;21055;-78
2021/07/20 04:36:09;;;;;;;20.20;12.70;;;13.10;99.90;;;14.16;100.00;98483.56;5051360;28;20818;-78
2021/07/20 04:38:40;;;;;;;24.77;14.27;;;13.00;99.90;;;14.12;100.00;98485.00;5050891;28;20449;-79
2021/07/20 04:41:09;;;;;;;24.30;15.17;;;13.00;99.90;;;14.07;100.00;98476.88;5055761;28;20511;-79
2021/07/20 04:43:39;;;;;;;25.10;14.67;;;13.00;99.90;;;14.04;100.00;98485.16;5053361;28;20457;-79
2021/07/20 04:46:09;;;;;;;24.23;14.13;;;13.10;99.90;;;14.00;100.00;98481.28;5049533;28;20471;-79
2021/07/20 04:48:40;;;;;;;21.90;12.70;;;13.10;99.90;;;13.99;100.00;98484.94;5047899;28;20814;-78
2021/07/20 04:51:09;;;;;;;19.20;12.20;;;13.00;99.90;;;13.99;100.00;98479.66;5050307;28;20441;-79
2021/07/20 04:53:41;;;;;;;20.90;13.63;;;13.00;99.90;;;13.93;100.00;98483.91;5050594;28;20506;-78
2021/07/20 04:56:11;;;;;;;31.90;14.10;;;12.90;99.90;;;13.90;100.00;98470.34;5050736;28;20499;-78
2021/07/20 04:58:40;;;;;;;21.77;14.00;;;12.90;99.90;;;13.96;100.00;98482.69;5050741;28;20441;-79
2021/07/20 05:01:11;;;;;;;23.50;13.70;;;12.90;99.90;;;14.00;100.00;98487.38;5048819;28;20480;-79
2021/07/20 05:03:43;;;;;;;24.40;13.57;;;13.00;99.90;;;13.94;100.00;98488.16;5048325;28;20465;-79
2021/07/20 05:06:14;;;;;;;28.67;15.23;;;12.90;99.90;;;13.99;100.00;98495.44;5051401;28;20461;-79
2021/07/20 05:08:44;;;;;;;22.90;13.63;;;12.90;99.90;;;13.96;100.00;98490.59;5050562;28;20510;-79
2021/07/20 05:11:14;;;;;;;23.10;14.73;;;12.80;99.90;;;13.98;100.00;98488.59;5048650;28;20460;-78
2021/07/20 05:13:43;;;;;;;28.53;13.27;;;12.90;99.90;;;14.02;100.00;98492.44;5046058;28;21057;-79
2021/07/20 05:16:13;;;;;;;21.23;13.20;;;13.00;99.90;;;14.08;100.00;98489.03;5048922;28;20489;-78
2021/07/20 05:18:46;;;;;;;23.60;14.23;;;13.00;99.90;;;14.15;100.00;98495.09;5049989;28;20445;-79
2021/07/20 05:21:18;;;;;;;22.43;13.97;;;13.20;99.90;;;14.24;100.00;98490.47;5050569;28;20502;-79
2021/07/20 05:23:48;;;;;;;25.57;13.83;;;13.20;99.90;;;14.29;100.00;98483.59;5046430;28;20461;-79
2021/07/20 05:26:18;;;;;;;27.23;14.30;;;13.40;99.90;;;14.33;100.00;98490.09;5045220;28;20446;-79
2021/07/20 05:28:46;;;;;;;25.57;13.47;;;13.40;99.90;;;14.39;100.00;98494.59;5044069;28;20506;-79
2021/07/20 05:31:40;;;;;;;28.57;12.90;;;13.40;99.90;;;14.42;100.00;98496.00;5046541;28;20445;-79
2021/07/20 05:34:13;;;;;;;25.60;12.77;;;13.40;99.90;;;14.49;100.00;98497.63;5048747;28;20435;-79
2021/07/20 05:36:46;;;;;;;22.60;13.40;;;13.50;99.90;;;14.58;100.00;98493.78;5049151;28;20476;-78
2021/07/20 05:39:17;;;;;;;24.33;14.63;;;13.60;99.90;;;14.59;100.00;98491.97;5046501;28;20918;-81
2021/07/20 05:41:46;;;;;;;26.27;14.20;;;13.60;99.90;;;14.68;100.00;98492.59;5050818;28;21010;-79
2021/07/20 05:44:17;;;;;;;19.33;12.67;;;13.70;99.90;;;14.74;100.00;98495.22;5049314;28;20457;-79
2021/07/20 05:47:02;;;;;;;27.13;13.87;;;13.70;99.90;;;14.76;100.00;98503.72;5049441;28;20489;-79
2021/07/20 05:49:52;;;;;;;22.57;12.30;;;13.80;99.90;;;14.84;100.00;98508.78;5052747;28;20535;-79
2021/07/20 05:52:23;;;;;;;20.23;12.53;;;13.90;99.90;;;14.90;100.00;98505.34;5049301;28;20450;-79
2021/07/20 05:54:54;;;;;;;27.60;12.60;;;14.00;99.90;;;14.96;100.00;98503.75;5049525;28;20880;-79
2021/07/20 05:57:26;;;;;;;23.13;13.23;;;14.00;99.90;;;15.06;100.00;98506.78;5049693;28;20438;-79
2021/07/20 05:59:55;;;;;;;21.07;12.83;;;14.20;99.90;;;15.12;100.00;98508.59;5049515;28;20575;-79
2021/07/20 06:02:25;;;;;;;26.37;13.43;;;14.30;99.90;;;15.17;100.00;98507.97;5049195;28;20500;-79
2021/07/20 06:04:57;;;;;;;23.10;12.60;;;14.30;99.90;;;15.20;100.00;98512.84;5046162;28;21085;-79
2021/07/20 06:07:25;;;;;;;22.67;14.00;;;14.30;99.90;;;15.21;100.00;98509.97;5049637;28;20453;-79
2021/07/20 06:09:55;;;;;;;22.30;13.90;;;14.30;99.90;;;15.27;100.00;98503.09;5052870;28;20940;-79
2021/07/20 06:12:25;;;;;;;26.90;14.47;;;14.40;99.90;;;15.33;100.00;98505.72;5049385;28;20538;-79
2021/07/20 06:15:13;;;;;;;22.80;13.27;;;14.40;99.90;;;15.42;100.00;98504.47;5051215;28;20449;-79
2021/07/20 06:17:42;;;;;;;17.87;12.20;;;14.40;99.90;;;15.44;100.00;98507.72;5043644;28;20483;-79
2021/07/20 06:20:14;;;;;;;24.10;12.77;;;14.50;99.90;;;15.47;100.00;98509.13;5048756;28;20507;-79
2021/07/20 06:22:55;;;;;;;27.80;14.43;;;14.50;99.90;;;15.49;100.00;98507.13;5047851;28;20937;-79
2021/07/20 06:25:42;;;;;;;26.03;13.93;;;14.50;99.90;;;15.60;100.00;98506.47;5046370;28;20448;-79
2021/07/20 06:28:16;;;;;;;28.00;12.23;;;14.60;99.90;;;15.68;100.00;98514.19;5046850;28;20882;-79
2021/07/20 06:30:47;;;;;;;26.33;14.47;;;14.70;99.90;;;15.74;100.00;98513.34;5048643;28;20449;-79
2021/07/20 06:33:18;;;;;;;22.60;13.00;;;14.80;99.90;;;15.80;100.00;98512.50;5048751;28;20902;-79
2021/07/20 06:38:46;;;;;;;26.70;12.87;;;14.90;99.90;;;15.92;100.00;98510.03;5048064;28;20556;-79
2021/07/20 06:41:22;;;;;;;28.20;13.63;;;15.00;99.90;;;15.95;100.00;98505.13;5054820;28;20441;-79
2021/07/20 06:43:53;;;;;;;25.97;14.23;;;15.00;99.90;;;15.99;100.00;98511.63;5043674;28;20500;-79
2021/07/20 06:46:29;;;;;;;21.07;12.97;;;15.10;99.90;;;16.09;100.00;98511.16;5048528;28;20474;-79
2021/07/20 06:49:00;;;;;;;28.43;14.03;;;15.20;99.90;;;16.14;100.00;98503.41;5054892;28;20555;-79
2021/07/20 06:51:38;;;;;;;23.20;14.53;;;15.20;99.90;;;16.23;100.00;98507.44;5049652;28;20504;-79
2021/07/20 06:54:14;;;;;;;24.20;13.93;;;15.40;99.90;;;16.24;100.00;98501.16;5045325;28;20469;-79
2021/07/20 06:56:56;;;;;;;23.03;14.70;;;15.40;99.90;;;16.34;100.00;98498.03;5042082;28;21462;-79
2021/07/20 06:59:33;;;;;;;22.80;13.33;;;15.50;99.90;;;16.42;100.00;98506.50;5056258;28;20914;-79
2021/07/20 07:02:03;;;;;;;30.77;14.20;;;15.50;99.90;;;16.49;100.00;98503.81;5047767;28;20457;-79
2021/07/20 07:05:14;;;;;;;34.33;15.80;;;15.60;99.90;;;16.59;100.00;98502.34;5044756;28;20813;-79
2021/07/20 07:07:47;;;;;;;28.73;14.60;;;15.70;99.90;;;16.69;100.00;98496.63;5051769;28;20448;-80
2021/07/20 07:10:18;;;;;;;32.80;13.83;;;15.80;99.90;;;16.75;100.00;98508.16;5046699;28;20495;-79
2021/07/20 07:12:58;;;;;;;27.40;15.10;;;15.90;99.90;;;16.84;100.00;98509.47;5049098;28;20836;-79
2021/07/20 07:15:36;;;;;;;38.13;16.93;;;16.10;99.90;;;16.92;100.00;98506.59;5051264;28;20465;-80
2021/07/20 07:18:12;;;;;;;28.20;16.40;;;16.20;99.90;;;17.01;100.00;98511.38;5043905;28;20460;-80
2021/07/20 07:20:47;;;;;;;28.17;14.57;;;16.40;99.90;;;17.09;100.00;98510.28;5049077;28;20488;-79
2021/07/20 07:23:19;;;;;;;29.13;16.53;;;16.40;99.90;;;17.18;100.00;98513.47;5045333;28;20554;-79
2021/07/20 07:25:50;;;;;;;27.43;15.17;;;16.50;99.90;;;17.25;100.00;98511.59;5045474;28;20849;-79
2021/07/20 07:28:32;;;;;;;31.07;16.87;;;16.50;99.90;;;17.36;100.00;98511.66;5047433;28;20448;-79
2021/07/20 07:31:02;;;;;;;30.17;15.80;;;16.60;99.90;;;17.48;100.00;98511.75;5049035;28;20441;-80
2021/07/20 07:33:31;;;;;;;24.07;13.77;;;16.80;99.90;;;17.57;100.00;98511.28;5048302;28;20488;-79
2021/07/20 07:36:07;;;;;;;25.30;14.10;;;16.80;99.90;;;17.68;100.00;98511.56;5050899;28;20436;-79
2021/07/20 07:38:41;;;;;;;24.03;13.57;;;17.00;99.90;;;17.76;100.00;98513.94;5049367;28;20477;-79
2021/07/20 07:41:11;;;;;;;26.80;15.03;;;17.00;99.90;;;17.82;100.00;98513.03;5048266;28;20545;-80
2021/07/20 07:43:46;;;;;;;23.77;12.93;;;17.00;99.90;;;17.87;100.00;98516.66;5044553;28;20548;-79
2021/07/20 07:46:18;;;;;;;26.43;12.67;;;17.10;99.90;;;17.88;100.00;98512.94;5012036;28;20472;-79
2021/07/20 07:48:47;;;;;;;26.23;15.17;;;17.20;99.90;;;17.95;100.00;98529.56;5048395;28;20448;-79
2021/07/20 07:51:46;;;;;;;25.73;13.23;;;17.30;99.90;;;17.98;100.00;98528.28;5049344;28;20506;-79
2021/07/20 07:54:18;;;;;;;27.83;15.13;;;17.30;99.90;;;18.04;100.00;98530.06;5047678;28;20456;-79
2021/07/20 07:56:48;;;;;;;27.53;15.20;;;17.30;99.90;;;18.12;100.00;98524.44;5051637;28;20452;-79
2021/07/20 07:59:19;;;;;;;30.10;13.87;;;17.50;99.90;;;18.18;100.00;98528.88;5050627;28;20445;-80
2021/07/20 08:01:57;;;;;;;25.87;13.07;;;17.50;99.90;;;18.27;100.00;98519.59;5054067;28;20441;-79
2021/07/20 08:04:35;;;;;;;18.33;12.20;;;17.60;99.90;;;18.34;100.00;98530.91;5056156;28;21419;-80
2021/07/20 08:07:08;;;;;;;26.63;13.40;;;17.70;99.90;;;18.43;100.00;98518.16;5050316;28;20942;-80
2021/07/20 08:09:41;;;;;;;19.20;11.57;;;17.70;99.90;;;18.50;100.00;98522.34;5047385;28;20461;-80
2021/07/20 08:12:22;;;;;;;24.53;11.73;;;17.80;99.90;;;18.55;100.00;98530.44;5047368;28;20457;-80
2021/07/20 08:14:52;;;;;;;21.33;12.70;;;17.90;99.90;;;18.64;100.00;98528.25;5053530;28;20457;-80
2021/07/20 08:17:26;;;;;;;22.17;13.23;;;18.00;99.90;;;18.71;100.00;98530.81;5047358;28;21005;-80
2021/07/20 08:20:08;;;;;;;20.07;11.20;;;18.10;99.90;;;18.78;100.00;98523.59;5055989;28;20464;-80
2021/07/20 08:22:43;;;;;;;22.10;12.43;;;18.20;99.90;;;18.87;100.00;98527.50;5051986;28;20458;-80
2021/07/20 08:25:24;;;;;;;29.80;12.20;;;18.30;99.90;;;18.93;100.00;98532.69;5044241;28;20553;-79
2021/07/20 08:28:09;;;;;;;21.70;12.40;;;18.30;99.90;;;18.88;100.00;98527.25;5047575;28;20466;-79
2021/07/20 08:31:05;;;;;;;23.33;11.60;;;18.20;99.90;;;18.93;100.00;98529.22;5049391;28;20509;-80
2021/07/20 08:33:53;;;;;;;21.80;11.90;;;18.20;99.90;;;19.05;100.00;98524.78;5053278;28;20463;-80
2021/07/20 08:36:23;;;;;;;20.50;10.60;;;18.30;99.90;;;19.13;100.00;98520.94;5040944;28;20450;-80
2021/07/20 08:39:09;;;;;;;20.93;12.10;;;18.40;99.90;;;19.19;100.00;98518.22;5046365;28;20461;-81
2021/07/20 08:42:07;;;;;;;23.43;11.53;;;18.50;99.90;;;19.25;100.00;98529.72;5053968;28;20453;-80
2021/07/20 08:45:13;;;;;;;22.70;11.40;;;18.60;99.90;;;19.27;100.00;98523.16;5045783;28;20496;-80
2021/07/20 08:48:15;;;;;;;17.90;11.57;;;18.60;99.90;;;19.31;100.00;98524.31;5052909;28;21026;-80
2021/07/20 08:50:52;;;;;;;20.97;10.73;;;18.60;99.90;;;19.29;100.00;98522.94;5047311;28;20843;-80
2021/07/20 08:53:33;;;;;;;25.47;11.53;;;18.60;99.90;;;19.29;100.00;98539.66;5051913;28;20445;-79
2021/07/20 08:56:04;;;;;;;17.20;10.83;;;18.60;99.90;;;19.25;100.00;98533.19;5053013;28;20935;-80
2021/07/20 08:58:39;;;;;;;18.87;11.50;;;18.50;99.90;;;19.19;99.50;98539.44;5047631;28;20932;-79
2021/07/20 09:01:15;;;;;;;19.03;11.40;;;18.50;99.90;;;19.18;100.00;98529.84;5051813;28;20441;-79
2021/07/20 09:04:00;;;;;;;18.97;10.50;;;18.50;99.90;;;19.16;100.00;98537.22;5047164;28;20545;-80
2021/07/20 09:06:36;;;;;;;19.87;11.60;;;18.40;99.90;;;19.13;100.00;98537.66;5051353;28;20905;-80
2021/07/20 09:09:11;;;;;;;16.43;10.53;;;18.50;99.90;;;19.09;100.00;98531.19;5051574;28;20507;-79
2021/07/20 09:11:45;;;;;;;17.80;10.77;;;18.50;99.90;;;19.10;100.00;98538.13;5048109;28;20464;-80
2021/07/20 09:14:25;;;;;;;20.10;11.60;;;18.50;99.90;;;19.13;100.00;98537.66;5048631;28;20571;-79
2021/07/20 09:17:08;;;;;;;16.53;10.10;;;18.40;99.90;;;19.18;100.00;98531.69;5050427;28;20461;-80
2021/07/20 09:19:50;;;;;;;16.23;10.07;;;18.40;99.90;;;19.28;100.00;98527.44;5045908;28;20460;-80
2021/07/20 09:22:22;;;;;;;24.20;11.10;;;18.50;99.90;;;19.34;98.77;98533.63;5051168;28;20834;-81
2021/07/20 09:24:59;;;;;;;17.83;9.73;;;18.60;99.90;;;19.33;95.80;98537.34;5046960;28;20488;-80
2021/07/20 09:28:17;;;;;;;21.10;10.47;;;18.60;99.90;;;19.35;93.74;98530.78;5043748;28;20487;-80
2021/07/20 09:31:07;;;;;;;19.40;10.43;;;18.60;99.90;;;19.39;95.13;98536.41;5051941;28;20552;-80
2021/07/20 09:34:16;;;;;;;16.30;10.10;;;18.70;99.90;;;19.35;98.03;98530.78;5048859;28;20448;-80
2021/07/20 09:37:13;;;;;;;17.30;9.70;;;18.70;99.90;;;19.34;95.48;98534.44;5043417;28;20454;-80
2021/07/20 09:39:59;;;;;;;20.63;11.30;;;18.70;99.90;;;19.36;93.41;98529.75;5040894;28;20464;-80
2021/07/20 09:42:46;;;;;;;17.07;10.17;;;18.60;99.90;;;19.38;93.59;98527.66;5048820;28;20444;-79
2021/07/20 09:45:36;;;;;;;16.80;10.57;;;18.70;99.90;;;19.40;95.44;98528.22;5055697;28;20876;-80
2021/07/20 09:48:23;;;;;;;19.90;9.63;;;18.70;99.90;;;19.42;95.64;98523.53;5049174;28;20460;-80
2021/07/20 09:51:22;;;;;;;15.70;9.00;;;18.80;99.90;;;19.41;95.27;98529.06;5047953;28;20452;-80
2021/07/20 09:54:38;;;;;;;17.67;10.37;;;18.70;99.90;;;19.42;91.89;98526.19;5042869;28;20978;-80
2021/07/20 09:57:23;;;;;;;19.13;10.23;;;18.80;99.90;;;19.49;93.86;98529.53;5050819;28;20491;-80
2021/07/20 10:00:11;;;;;;;17.87;9.47;;;18.80;99.90;;;19.49;92.10;98521.56;5049007;28;20453;-80
2021/07/20 10:03:23;;;;;;;18.90;10.60;;;18.80;99.90;;;19.51;91.36;98519.47;5047721;28;20464;-80
2021/07/20 10:06:07;;;;;;;15.10;9.70;;;18.90;99.90;;;19.61;90.68;98523.41;5045383;28;20872;-80
2021/07/20 10:08:59;;;;;;;16.87;10.20;;;18.90;99.90;;;19.65;91.16;98527.19;5047228;28;20514;-80
2021/07/20 10:11:50;;;;;;;18.53;10.10;;;19.00;99.90;;;19.54;92.17;98523.53;5046412;28;20958;-79
2021/07/20 10:14:46;;;;;;;17.60;10.40;;;19.00;99.90;;;19.59;85.97;98524.44;5051890;28;20490;-80
2021/07/20 10:17:35;;;;;;;18.60;10.40;;;18.80;99.90;;;19.64;92.05;98512.31;5044543;28;20848;-79
2021/07/20 10:20:22;;;;;;;14.07;9.70;;;18.90;99.90;;;19.67;89.44;98511.84;5044388;28;20457;-80
2021/07/20 10:23:02;;;;;;;16.70;10.47;;;18.90;99.90;;;19.69;88.25;98515.06;5047479;28;20496;-79
2021/07/20 10:25:46;;;;;;;17.73;10.77;;;19.00;99.90;;;19.73;87.45;98521.53;5044659;28;20839;-80
2021/07/20 10:28:27;;;;;;;16.60;9.83;;;19.00;99.90;;;19.75;87.42;98508.84;5045615;28;20461;-79
2021/07/20 10:31:14;;;;;;;17.77;10.37;;;19.20;99.90;;;19.78;85.83;98503.06;5051292;28;20824;-80
2021/07/20 10:33:50;;;;;;;22.90;10.50;;;19.10;99.90;;;19.85;87.00;98504.56;5051981;28;20452;-80
2021/07/20 10:36:24;;;;;;;14.83;8.77;;;19.20;99.90;;;19.91;84.83;98508.09;5048713;28;20464;-80
2021/07/20 10:39:03;;;;;;;17.30;9.60;;;19.20;99.90;;;19.93;85.22;98506.00;5050148;28;20861;-80
2021/07/20 10:41:49;;;;;;;15.37;9.60;;;19.30;99.90;;;19.96;81.25;98498.38;5048864;28;20469;-80